createdAt,value
2022-07-28T00:00:29.379Z,1019.50
2022-07-28T00:00:59.521Z,1019.61
2022-07-28T00:01:30.642Z,1019.61
2022-07-28T00:02:01.731Z,1019.71
2022-07-28T00:02:32.725Z,1019.61
2022-07-28T00:03:03.699Z,1019.61
2022-07-28T00:03:34.655Z,1019.81
2022-07-28T00:04:06.423Z,1019.81
2022-07-28T00:04:36.661Z,1019.81
2022-07-28T00:05:07.935Z,1019.81
2022-07-28T00:05:38.635Z,1019.61
2022-07-28T00:06:09.513Z,1019.61
2022-07-28T00:06:40.685Z,1019.61
2022-07-28T00:07:11.629Z,1019.61
2022-07-28T00:07:42.562Z,1019.91
2022-07-28T00:08:13.638Z,1019.91
2022-07-28T00:08:44.606Z,1019.81
2022-07-28T00:09:15.789Z,1019.81
2022-07-28T00:09:46.658Z,1019.81
2022-07-28T00:10:17.966Z,1019.81
2022-07-28T00:10:48.644Z,1019.61
2022-07-28T00:11:19.571Z,1019.61
2022-07-28T00:11:54.504Z,1019.71
2022-07-28T00:12:21.649Z,1019.71
2022-07-28T00:12:52.604Z,1019.91
2022-07-28T00:13:23.623Z,1019.91
2022-07-28T00:13:54.554Z,1019.81
2022-07-28T00:14:25.678Z,1019.81
2022-07-28T00:14:56.728Z,1019.61
2022-07-28T00:15:29.306Z,1019.61
2022-07-28T00:15:58.619Z,1019.71
2022-07-28T00:16:29.593Z,1019.71
2022-07-28T00:17:00.721Z,1019.81
2022-07-28T00:17:31.808Z,1019.81
2022-07-28T00:18:02.595Z,1019.81
2022-07-28T00:18:33.603Z,1019.91
2022-07-28T00:19:04.654Z,1019.91
2022-07-28T00:19:35.634Z,1019.61
2022-07-28T00:20:07.171Z,1019.61
2022-07-28T00:20:37.721Z,1019.50
2022-07-28T00:21:08.575Z,1019.50
2022-07-28T00:21:39.598Z,1019.71
2022-07-28T00:22:10.742Z,1019.71
2022-07-28T00:22:41.708Z,1019.81
2022-07-28T00:23:12.615Z,1019.81
2022-07-28T00:23:43.663Z,1019.61
2022-07-28T00:24:15.277Z,1019.61
2022-07-28T00:24:45.735Z,1020.11
2022-07-28T00:25:16.972Z,1020.11
2022-07-28T00:25:47.731Z,1019.61
2022-07-28T00:26:18.615Z,1019.61
2022-07-28T00:26:49.671Z,1019.61
2022-07-28T00:27:20.675Z,1019.61
2022-07-28T00:27:51.673Z,1019.81
2022-07-28T00:28:22.634Z,1019.81
2022-07-28T00:28:53.644Z,1019.50
2022-07-28T00:29:24.680Z,1019.50
2022-07-28T00:29:55.719Z,1019.71
2022-07-28T00:30:27.216Z,1019.71
2022-07-28T00:30:57.758Z,1019.50
2022-07-28T00:31:28.767Z,1019.50
2022-07-28T00:31:59.686Z,1019.50
2022-07-28T00:32:30.704Z,1019.50
2022-07-28T00:33:01.699Z,1019.81
2022-07-28T00:33:32.707Z,1019.61
2022-07-28T00:34:03.705Z,1019.61
2022-07-28T00:34:34.725Z,1019.71
2022-07-28T00:35:08.058Z,1019.71
2022-07-28T00:35:37.473Z,1019.71
2022-07-28T00:36:08.829Z,1019.71
2022-07-28T00:36:38.658Z,1019.71
2022-07-28T00:37:14.432Z,1019.71
2022-07-28T00:37:40.688Z,1020.01
2022-07-28T00:38:11.655Z,1020.01
2022-07-28T00:38:44.315Z,1019.81
2022-07-28T00:39:13.699Z,1019.81
2022-07-28T00:39:44.632Z,1019.81
2022-07-28T00:40:16.254Z,1019.81
2022-07-28T00:40:46.719Z,1019.61
2022-07-28T00:41:17.572Z,1019.61
2022-07-28T00:41:48.696Z,1019.81
2022-07-28T00:42:19.699Z,1019.81
2022-07-28T00:42:50.797Z,1019.81
2022-07-28T00:43:21.663Z,1019.81
2022-07-28T00:43:52.650Z,1019.50
2022-07-28T00:44:23.659Z,1019.50
2022-07-28T00:44:54.634Z,1019.50
2022-07-28T00:45:26.122Z,1019.50
2022-07-28T00:45:56.656Z,1019.91
2022-07-28T00:46:27.700Z,1019.91
2022-07-28T00:46:58.761Z,1019.71
2022-07-28T00:47:33.750Z,1019.71
2022-07-28T00:48:00.698Z,1019.81
2022-07-28T00:48:31.899Z,1019.61
2022-07-28T00:49:02.722Z,1019.61
2022-07-28T00:49:33.750Z,1019.50
2022-07-28T00:50:05.223Z,1019.50
2022-07-28T00:50:35.787Z,1019.71
2022-07-28T00:51:06.751Z,1019.71
2022-07-28T00:51:37.762Z,1019.71
2022-07-28T00:52:08.754Z,1019.71
2022-07-28T00:52:39.793Z,1019.71
2022-07-28T00:53:10.737Z,1019.71
2022-07-28T00:53:41.678Z,1019.81
2022-07-28T00:54:12.982Z,1019.81
2022-07-28T00:54:43.660Z,1019.61
2022-07-28T00:55:15.254Z,1019.61
2022-07-28T00:56:05.378Z,1019.61
2022-07-28T00:56:16.623Z,1019.61
2022-07-28T00:56:47.729Z,1019.81
2022-07-28T00:57:18.753Z,1019.81
2022-07-28T00:57:49.815Z,1019.61
2022-07-28T00:58:20.870Z,1019.61
2022-07-28T00:58:51.704Z,1019.71
2022-07-28T00:59:22.704Z,1019.71
2022-07-28T00:59:53.731Z,1019.81
2022-07-28T01:00:25.252Z,1019.81
2022-07-28T01:00:55.776Z,1019.61
2022-07-28T01:01:26.866Z,1019.61
2022-07-28T01:01:57.875Z,1019.61
2022-07-28T01:02:28.977Z,1019.61
2022-07-28T01:02:59.899Z,1020.01
2022-07-28T01:03:30.738Z,1020.01
2022-07-28T01:04:01.738Z,1019.91
2022-07-28T01:04:32.733Z,1019.91
2022-07-28T01:05:04.909Z,1019.91
2022-07-28T01:05:43.302Z,1019.71
2022-07-28T01:06:05.786Z,1019.71
2022-07-28T01:06:36.812Z,1019.81
2022-07-28T01:07:08.611Z,1019.81
2022-07-28T01:07:38.776Z,1019.91
2022-07-28T01:08:09.802Z,1019.91
2022-07-28T01:08:40.797Z,1019.81
2022-07-28T01:09:11.808Z,1019.81
2022-07-28T01:09:42.808Z,1019.81
2022-07-28T01:10:14.197Z,1019.81
2022-07-28T01:10:44.823Z,1019.81
2022-07-28T01:11:15.962Z,1019.81
2022-07-28T01:11:46.679Z,1019.71
2022-07-28T01:12:17.771Z,1019.71
2022-07-28T01:12:48.781Z,1019.91
2022-07-28T01:13:19.784Z,1019.91
2022-07-28T01:13:50.876Z,1019.61
2022-07-28T01:14:21.806Z,1019.61
2022-07-28T01:14:52.799Z,1019.61
2022-07-28T01:15:24.265Z,1019.61
2022-07-28T01:15:54.882Z,1019.71
2022-07-28T01:16:25.959Z,1019.71
2022-07-28T01:16:56.764Z,1019.71
2022-07-28T01:17:27.795Z,1019.71
2022-07-28T01:17:58.855Z,1019.71
2022-07-28T01:18:29.852Z,1019.71
2022-07-28T01:19:00.893Z,1019.91
2022-07-28T01:19:31.918Z,1019.71
2022-07-28T01:20:03.098Z,1019.71
2022-07-28T01:20:33.778Z,1019.50
2022-07-28T01:21:04.821Z,1019.50
2022-07-28T01:21:35.936Z,1019.81
2022-07-28T01:22:06.825Z,1019.81
2022-07-28T01:22:37.852Z,1019.91
2022-07-28T01:23:08.879Z,1019.91
2022-07-28T01:23:39.875Z,1019.61
2022-07-28T01:24:10.955Z,1019.61
2022-07-28T01:24:41.807Z,1019.81
2022-07-28T01:25:13.260Z,1019.81
2022-07-28T01:25:48.061Z,1019.71
2022-07-28T01:26:14.836Z,1019.71
2022-07-28T01:26:46.135Z,1019.91
2022-07-28T01:27:16.744Z,1019.91
2022-07-28T01:27:47.751Z,1019.81
2022-07-28T01:28:18.843Z,1019.81
2022-07-28T01:28:49.868Z,1019.91
2022-07-28T01:29:20.944Z,1019.91
2022-07-28T01:29:51.846Z,1020.11
2022-07-28T01:30:26.210Z,1020.11
2022-07-28T01:30:53.984Z,1019.91
2022-07-28T01:31:24.909Z,1019.91
2022-07-28T01:31:55.936Z,1019.81
2022-07-28T01:32:26.917Z,1019.81
2022-07-28T01:32:57.815Z,1019.91
2022-07-28T01:33:28.833Z,1019.91
2022-07-28T01:33:59.888Z,1019.81
2022-07-28T01:34:30.877Z,1019.81
2022-07-28T01:35:02.432Z,1019.81
2022-07-28T01:35:32.847Z,1019.81
2022-07-28T01:36:03.872Z,1019.81
2022-07-28T01:36:34.886Z,1019.81
2022-07-28T01:37:05.948Z,1019.81
2022-07-28T01:37:36.940Z,1019.61
2022-07-28T01:38:07.930Z,1019.61
2022-07-28T01:38:39.773Z,1019.71
2022-07-28T01:39:09.855Z,1019.71
2022-07-28T01:39:40.953Z,1019.81
2022-07-28T01:40:12.180Z,1019.81
2022-07-28T01:40:42.850Z,1019.81
2022-07-28T01:41:13.888Z,1019.81
2022-07-28T01:41:45.159Z,1019.91
2022-07-28T01:42:15.975Z,1019.91
2022-07-28T01:42:46.886Z,1019.81
2022-07-28T01:43:17.882Z,1019.81
2022-07-28T01:43:48.904Z,1019.71
2022-07-28T01:44:19.966Z,1019.71
2022-07-28T01:44:50.894Z,1019.81
2022-07-28T01:45:22.393Z,1019.81
2022-07-28T01:45:52.906Z,1019.81
2022-07-28T01:46:23.975Z,1019.81
2022-07-28T01:46:54.989Z,1019.91
2022-07-28T01:47:25.959Z,1019.91
2022-07-28T01:47:56.924Z,1019.71
2022-07-28T01:48:27.877Z,1019.71
2022-07-28T01:48:59.014Z,1019.81
2022-07-28T01:49:29.941Z,1019.81
2022-07-28T01:50:01.451Z,1019.91
2022-07-28T01:50:32.048Z,1019.91
2022-07-28T01:51:02.881Z,1019.91
2022-07-28T01:51:33.934Z,1020.11
2022-07-28T01:52:04.971Z,1020.11
2022-07-28T01:52:36.017Z,1019.61
2022-07-28T01:53:06.990Z,1019.61
2022-07-28T01:53:38.303Z,1019.81
2022-07-28T01:54:08.938Z,1019.81
2022-07-28T01:54:39.982Z,1019.91
2022-07-28T01:55:11.471Z,1019.91
2022-07-28T01:55:41.912Z,1019.91
2022-07-28T01:56:12.925Z,1019.91
2022-07-28T01:56:43.999Z,1020.01
2022-07-28T01:57:14.946Z,1020.01
2022-07-28T01:57:46.158Z,1019.50
2022-07-28T01:58:16.787Z,1019.50
2022-07-28T01:58:47.981Z,1019.81
2022-07-28T01:59:18.927Z,1019.81
2022-07-28T01:59:49.949Z,1020.11
2022-07-28T02:00:22.402Z,1020.11
2022-07-28T02:00:52.091Z,1020.11
2022-07-28T02:01:23.047Z,1020.11
2022-07-28T02:01:54.072Z,1019.61
2022-07-28T02:02:24.918Z,1019.61
2022-07-28T02:02:56.039Z,1019.81
2022-07-28T02:03:27.050Z,1019.81
2022-07-28T02:03:57.915Z,1019.91
2022-07-28T02:04:28.973Z,1019.91
2022-07-28T02:05:00.007Z,1019.71
2022-07-28T02:05:31.570Z,1019.71
2022-07-28T02:06:02.011Z,1019.81
2022-07-28T02:06:32.925Z,1019.81
2022-07-28T02:07:03.944Z,1019.81
2022-07-28T02:07:34.925Z,1020.01
2022-07-28T02:08:06.002Z,1020.01
2022-07-28T02:08:37.042Z,1019.81
2022-07-28T02:09:07.990Z,1019.81
2022-07-28T02:09:38.927Z,1019.71
2022-07-28T02:10:11.764Z,1019.71
2022-07-28T02:10:41.009Z,1019.81
2022-07-28T02:11:12.046Z,1019.81
2022-07-28T02:11:42.936Z,1019.71
2022-07-28T02:12:13.945Z,1019.71
2022-07-28T02:12:45.212Z,1019.71
2022-07-28T02:13:15.967Z,1019.71
2022-07-28T02:13:47.021Z,1019.81
2022-07-28T02:14:18.362Z,1019.81
2022-07-28T02:14:49.036Z,1020.01
2022-07-28T02:15:20.463Z,1020.01
2022-07-28T02:15:51.144Z,1019.71
2022-07-28T02:16:22.124Z,1019.71
2022-07-28T02:16:53.080Z,1019.61
2022-07-28T02:17:23.977Z,1019.61
2022-07-28T02:17:54.979Z,1019.61
2022-07-28T02:18:26.067Z,1019.61
2022-07-28T02:18:57.047Z,1019.81
2022-07-28T02:19:27.970Z,1019.81
2022-07-28T02:19:58.986Z,1019.71
2022-07-28T02:20:30.374Z,1019.71
2022-07-28T02:21:01.066Z,1019.61
2022-07-28T02:21:32.095Z,1019.61
2022-07-28T02:22:03.041Z,1019.61
2022-07-28T02:22:34.063Z,1019.71
2022-07-28T02:23:05.078Z,1019.71
2022-07-28T02:23:35.979Z,1019.91
2022-07-28T02:24:07.022Z,1019.91
2022-07-28T02:24:38.083Z,1019.71
2022-07-28T02:25:09.475Z,1019.71
2022-07-28T02:25:40.056Z,1019.81
2022-07-28T02:26:11.022Z,1019.81
2022-07-28T02:26:42.032Z,1019.91
2022-07-28T02:27:13.032Z,1019.91
2022-07-28T02:27:44.056Z,1019.50
2022-07-28T02:28:15.022Z,1019.50
2022-07-28T02:28:46.498Z,1019.91
2022-07-28T02:29:40.524Z,1019.91
2022-07-28T02:30:19.594Z,1019.71
2022-07-28T02:30:50.164Z,1019.71
2022-07-28T02:31:21.277Z,1019.71
2022-07-28T02:31:52.057Z,1019.81
2022-07-28T02:32:27.216Z,1019.81
2022-07-28T02:32:54.077Z,1019.81
2022-07-28T02:33:57.886Z,1019.81
2022-07-28T02:34:28.032Z,1019.81
2022-07-28T02:34:58.091Z,1019.81
2022-07-28T02:35:31.895Z,1019.81
2022-07-28T02:36:00.094Z,1019.91
2022-07-28T02:36:31.307Z,1019.91
2022-07-28T02:37:02.107Z,1019.81
2022-07-28T02:37:33.130Z,1019.71
2022-07-28T02:38:04.034Z,1019.71
2022-07-28T02:38:35.066Z,1019.81
2022-07-28T02:39:06.150Z,1019.81
2022-07-28T02:39:37.115Z,1019.91
2022-07-28T02:40:08.473Z,1019.91
2022-07-28T02:40:39.061Z,1019.81
2022-07-28T02:41:10.039Z,1019.81
2022-07-28T02:41:41.888Z,1019.91
2022-07-28T02:42:12.134Z,1019.91
2022-07-28T02:42:43.118Z,1019.91
2022-07-28T02:43:14.144Z,1019.91
2022-07-28T02:43:50.296Z,1019.81
2022-07-28T02:44:16.747Z,1019.81
2022-07-28T02:44:47.111Z,1019.91
2022-07-28T02:45:19.060Z,1019.91
2022-07-28T02:45:49.286Z,1019.81
2022-07-28T02:46:20.257Z,1019.81
2022-07-28T02:46:51.176Z,1020.01
2022-07-28T02:47:22.138Z,1020.01
2022-07-28T02:47:53.118Z,1019.81
2022-07-28T02:48:24.100Z,1019.81
2022-07-28T02:48:55.163Z,1019.91
2022-07-28T02:49:26.149Z,1019.91
2022-07-28T02:49:57.076Z,1019.71
2022-07-28T02:50:28.576Z,1019.71
2022-07-28T02:50:59.121Z,1019.91
2022-07-28T02:51:30.165Z,1019.91
2022-07-28T02:52:01.191Z,1019.81
2022-07-28T02:52:32.271Z,1019.71
2022-07-28T02:53:15.255Z,1019.71
2022-07-28T02:53:34.177Z,1019.81
2022-07-28T02:54:05.111Z,1019.81
2022-07-28T02:54:36.098Z,1020.11
2022-07-28T02:55:07.474Z,1020.11
2022-07-28T02:55:38.196Z,1020.01
2022-07-28T02:56:09.176Z,1020.01
2022-07-28T02:56:40.252Z,1020.01
2022-07-28T02:57:11.289Z,1020.01
2022-07-28T02:57:42.174Z,1019.71
2022-07-28T02:58:13.191Z,1019.71
2022-07-28T02:58:44.113Z,1019.91
2022-07-28T02:59:15.157Z,1019.91
2022-07-28T02:59:46.543Z,1019.91
2022-07-28T03:00:17.648Z,1019.91
2022-07-28T03:00:48.023Z,1020.01
2022-07-28T03:01:19.389Z,1020.01
2022-07-28T03:01:50.304Z,1019.81
2022-07-28T03:02:21.297Z,1019.81
2022-07-28T03:02:52.262Z,1020.01
2022-07-28T03:03:23.298Z,1020.01
2022-07-28T03:03:55.417Z,1019.81
2022-07-28T03:04:25.282Z,1019.81
2022-07-28T03:04:56.395Z,1019.91
2022-07-28T03:05:27.886Z,1019.91
2022-07-28T03:05:58.233Z,1020.01
2022-07-28T03:06:29.291Z,1020.01
2022-07-28T03:07:00.324Z,1020.22
2022-07-28T03:07:31.340Z,1020.22
2022-07-28T03:08:02.297Z,1019.91
2022-07-28T03:08:33.260Z,1019.91
2022-07-28T03:09:04.302Z,1019.91
2022-07-28T03:09:35.359Z,1019.71
2022-07-28T03:10:06.690Z,1019.71
2022-07-28T03:10:37.239Z,1020.01
2022-07-28T03:11:08.341Z,1020.01
2022-07-28T03:11:39.321Z,1020.01
2022-07-28T03:12:10.362Z,1020.01
2022-07-28T03:12:41.337Z,1019.91
2022-07-28T03:13:13.055Z,1019.91
2022-07-28T03:13:43.307Z,1019.91
2022-07-28T03:14:14.584Z,1019.91
2022-07-28T03:14:45.354Z,1020.01
2022-07-28T03:15:16.839Z,1020.01
2022-07-28T03:15:47.379Z,1019.91
2022-07-28T03:16:18.398Z,1019.91
2022-07-28T03:16:55.117Z,1020.11
2022-07-28T03:17:20.468Z,1020.11
2022-07-28T03:17:51.317Z,1020.22
2022-07-28T03:18:22.318Z,1020.22
2022-07-28T03:18:53.309Z,1020.11
2022-07-28T03:19:24.343Z,1020.11
2022-07-28T03:19:55.379Z,1020.22
2022-07-28T03:20:27.515Z,1020.22
2022-07-28T03:20:57.321Z,1020.11
2022-07-28T03:21:28.295Z,1020.11
2022-07-28T03:21:59.371Z,1020.11
2022-07-28T03:22:30.271Z,1020.11
2022-07-28T03:23:01.325Z,1020.11
2022-07-28T03:23:32.434Z,1020.11
2022-07-28T03:24:03.291Z,1020.11
2022-07-28T03:24:34.282Z,1020.01
2022-07-28T03:25:07.040Z,1020.01
2022-07-28T03:25:36.371Z,1020.11
2022-07-28T03:26:07.341Z,1020.11
2022-07-28T03:26:38.379Z,1020.11
2022-07-28T03:27:09.395Z,1020.11
2022-07-28T03:27:40.359Z,1020.01
2022-07-28T03:28:11.406Z,1020.01
2022-07-28T03:28:42.358Z,1020.22
2022-07-28T03:29:13.371Z,1020.22
2022-07-28T03:29:44.312Z,1020.11
2022-07-28T03:30:15.920Z,1020.11
2022-07-28T03:30:46.599Z,1020.22
2022-07-28T03:31:17.278Z,1020.22
2022-07-28T03:31:48.213Z,1020.22
2022-07-28T03:32:19.384Z,1020.22
2022-07-28T03:32:50.356Z,1020.28
2022-07-28T03:33:21.441Z,1020.28
2022-07-28T03:33:52.357Z,1020.39
2022-07-28T03:34:23.384Z,1020.39
2022-07-28T03:34:54.302Z,1020.22
2022-07-28T03:35:25.742Z,1020.22
2022-07-28T03:35:56.374Z,1020.11
2022-07-28T03:36:27.406Z,1020.11
2022-07-28T03:36:58.396Z,1020.11
2022-07-28T03:37:29.463Z,1020.11
2022-07-28T03:38:00.373Z,1020.11
2022-07-28T03:38:31.371Z,1020.11
2022-07-28T03:39:02.371Z,1020.22
2022-07-28T03:39:33.325Z,1020.28
2022-07-28T03:40:04.754Z,1020.28
2022-07-28T03:40:35.484Z,1020.39
2022-07-28T03:41:06.418Z,1020.39
2022-07-28T03:41:37.415Z,1020.39
2022-07-28T03:42:08.439Z,1020.39
2022-07-28T03:42:39.334Z,1020.22
2022-07-28T03:43:10.395Z,1020.22
2022-07-28T03:43:41.569Z,1020.28
2022-07-28T03:44:12.844Z,1020.28
2022-07-28T03:44:44.056Z,1020.59
2022-07-28T03:45:14.796Z,1020.59
2022-07-28T03:45:46.480Z,1020.22
2022-07-28T03:46:16.590Z,1020.22
2022-07-28T03:46:47.558Z,1020.39
2022-07-28T03:47:18.269Z,1020.39
2022-07-28T03:47:49.425Z,1020.28
2022-07-28T03:48:20.432Z,1020.28
2022-07-28T03:48:51.541Z,1020.39
2022-07-28T03:49:22.585Z,1020.39
2022-07-28T03:49:53.428Z,1020.01
2022-07-28T03:50:26.920Z,1020.01
2022-07-28T03:50:55.363Z,1020.39
2022-07-28T03:51:26.457Z,1020.39
2022-07-28T03:51:57.427Z,1020.39
2022-07-28T03:52:28.457Z,1020.39
2022-07-28T03:52:59.478Z,1020.28
2022-07-28T03:53:30.527Z,1020.28
2022-07-28T03:54:01.450Z,1020.39
2022-07-28T03:54:32.519Z,1020.49
2022-07-28T03:55:03.759Z,1020.49
2022-07-28T03:55:34.473Z,1020.39
2022-07-28T03:56:05.579Z,1020.39
2022-07-28T03:56:36.514Z,1020.22
2022-07-28T03:57:07.388Z,1020.22
2022-07-28T03:57:38.365Z,1020.49
2022-07-28T03:58:12.074Z,1020.49
2022-07-28T03:58:40.541Z,1020.59
2022-07-28T03:59:11.481Z,1020.59
2022-07-28T03:59:42.455Z,1020.28
2022-07-28T04:00:14.857Z,1020.28
2022-07-28T04:00:44.495Z,1020.28
2022-07-28T04:01:15.718Z,1020.28
2022-07-28T04:01:46.699Z,1020.39
2022-07-28T04:02:17.722Z,1020.39
2022-07-28T04:02:48.494Z,1020.28
2022-07-28T04:03:35.728Z,1020.28
2022-07-28T04:03:50.491Z,1020.39
2022-07-28T04:04:21.541Z,1020.39
2022-07-28T04:04:52.499Z,1020.49
2022-07-28T04:05:23.895Z,1020.49
2022-07-28T04:05:54.508Z,1020.28
2022-07-28T04:06:25.526Z,1020.28
2022-07-28T04:06:56.572Z,1020.39
2022-07-28T04:07:27.396Z,1020.39
2022-07-28T04:07:58.464Z,1020.39
2022-07-28T04:08:29.494Z,1020.39
2022-07-28T04:09:00.513Z,1020.28
2022-07-28T04:09:31.545Z,1020.28
2022-07-28T04:10:02.979Z,1020.49
2022-07-28T04:10:33.499Z,1020.59
2022-07-28T04:11:04.543Z,1020.59
2022-07-28T04:11:35.588Z,1020.49
2022-07-28T04:12:06.561Z,1020.49
2022-07-28T04:12:37.561Z,1020.28
2022-07-28T04:13:08.448Z,1020.28
2022-07-28T04:13:39.512Z,1020.39
2022-07-28T04:14:16.207Z,1020.39
2022-07-28T04:14:41.632Z,1020.28
2022-07-28T04:15:12.918Z,1020.28
2022-07-28T04:15:43.526Z,1020.28
2022-07-28T04:16:15.936Z,1020.28
2022-07-28T04:16:45.729Z,1020.28
2022-07-28T04:17:16.703Z,1020.28
2022-07-28T04:17:47.537Z,1020.22
2022-07-28T04:18:18.367Z,1020.22
2022-07-28T04:18:49.520Z,1020.49
2022-07-28T04:19:20.578Z,1020.49
2022-07-28T04:19:51.865Z,1020.59
2022-07-28T04:20:22.893Z,1020.59
2022-07-28T04:20:53.543Z,1020.39
2022-07-28T04:21:24.467Z,1020.39
2022-07-28T04:21:55.573Z,1020.49
2022-07-28T04:22:26.510Z,1020.49
2022-07-28T04:22:57.534Z,1020.39
2022-07-28T04:23:28.546Z,1020.39
2022-07-28T04:24:01.981Z,1020.39
2022-07-28T04:24:30.611Z,1020.39
2022-07-28T04:25:02.089Z,1020.49
2022-07-28T04:25:32.671Z,1020.49
2022-07-28T04:26:03.516Z,1020.49
2022-07-28T04:26:34.548Z,1020.49
2022-07-28T04:27:05.578Z,1020.49
2022-07-28T04:27:36.606Z,1020.69
2022-07-28T04:28:07.575Z,1020.69
2022-07-28T04:28:38.590Z,1020.49
2022-07-28T04:29:09.505Z,1020.49
2022-07-28T04:29:40.589Z,1020.28
2022-07-28T04:30:11.989Z,1020.28
2022-07-28T04:30:44.074Z,1020.59
2022-07-28T04:31:13.617Z,1020.59
2022-07-28T04:31:44.455Z,1020.49
2022-07-28T04:32:15.618Z,1020.49
2022-07-28T04:32:46.591Z,1020.59
2022-07-28T04:33:17.792Z,1020.59
2022-07-28T04:33:48.439Z,1020.39
2022-07-28T04:34:19.700Z,1020.39
2022-07-28T04:34:50.586Z,1020.49
2022-07-28T04:35:22.137Z,1020.49
2022-07-28T04:35:52.620Z,1020.49
2022-07-28T04:36:23.613Z,1020.49
2022-07-28T04:36:54.515Z,1020.39
2022-07-28T04:37:25.570Z,1020.39
2022-07-28T04:37:56.596Z,1020.49
2022-07-28T04:38:27.573Z,1020.49
2022-07-28T04:38:58.617Z,1020.59
2022-07-28T04:39:29.642Z,1020.59
2022-07-28T04:40:01.070Z,1020.69
2022-07-28T04:40:31.587Z,1020.69
2022-07-28T04:41:02.524Z,1020.69
2022-07-28T04:41:33.566Z,1020.59
2022-07-28T04:42:04.619Z,1020.59
2022-07-28T04:42:35.586Z,1020.39
2022-07-28T04:43:06.585Z,1020.39
2022-07-28T04:43:37.570Z,1020.39
2022-07-28T04:44:08.611Z,1020.39
2022-07-28T04:44:39.629Z,1020.49
2022-07-28T04:45:11.176Z,1020.49
2022-07-28T04:45:53.085Z,1020.39
2022-07-28T04:46:15.098Z,1020.39
2022-07-28T04:46:43.691Z,1020.49
2022-07-28T04:47:14.557Z,1020.49
2022-07-28T04:47:46.523Z,1020.69
2022-07-28T04:48:16.682Z,1020.69
2022-07-28T04:48:47.711Z,1020.49
2022-07-28T04:49:18.534Z,1020.49
2022-07-28T04:49:49.621Z,1020.39
2022-07-28T04:50:21.001Z,1020.39
2022-07-28T04:50:51.642Z,1020.49
2022-07-28T04:51:22.573Z,1020.49
2022-07-28T04:51:53.600Z,1020.59
2022-07-28T04:52:24.661Z,1020.59
2022-07-28T04:52:55.587Z,1020.59
2022-07-28T04:53:26.620Z,1020.59
2022-07-28T04:53:57.597Z,1020.59
2022-07-28T04:54:28.645Z,1020.59
2022-07-28T04:54:59.667Z,1020.59
2022-07-28T04:55:31.021Z,1020.59
2022-07-28T04:56:01.638Z,1020.49
2022-07-28T04:56:32.652Z,1020.59
2022-07-28T04:57:04.642Z,1020.59
2022-07-28T04:57:34.652Z,1020.39
2022-07-28T04:58:05.598Z,1020.39
2022-07-28T04:58:36.581Z,1020.79
2022-07-28T04:59:07.601Z,1020.79
2022-07-28T04:59:38.654Z,1020.59
2022-07-28T05:00:10.327Z,1020.59
2022-07-28T05:00:40.761Z,1020.49
2022-07-28T05:01:11.767Z,1020.49
2022-07-28T05:01:42.828Z,1020.39
2022-07-28T05:02:13.715Z,1020.39
2022-07-28T05:02:44.609Z,1020.59
2022-07-28T05:03:15.713Z,1020.59
2022-07-28T05:03:46.798Z,1020.59
2022-07-28T05:04:18.488Z,1020.59
2022-07-28T05:04:48.588Z,1020.59
2022-07-28T05:05:20.403Z,1020.59
2022-07-28T05:05:53.848Z,1020.49
2022-07-28T05:06:21.680Z,1020.49
2022-07-28T05:06:52.660Z,1020.49
2022-07-28T05:07:23.672Z,1020.49
2022-07-28T05:08:01.061Z,1020.49
2022-07-28T05:08:26.595Z,1020.49
2022-07-28T05:08:56.667Z,1020.39
2022-07-28T05:09:27.624Z,1020.39
2022-07-28T05:09:58.642Z,1020.59
2022-07-28T05:10:30.063Z,1020.59
2022-07-28T05:11:00.759Z,1020.59
2022-07-28T05:11:31.740Z,1020.59
2022-07-28T05:12:02.710Z,1020.39
2022-07-28T05:12:33.623Z,1020.39
2022-07-28T05:13:04.664Z,1020.39
2022-07-28T05:13:35.747Z,1020.49
2022-07-28T05:14:06.733Z,1020.49
2022-07-28T05:14:37.692Z,1020.49
2022-07-28T05:15:09.114Z,1020.49
2022-07-28T05:15:39.731Z,1020.39
2022-07-28T05:16:10.705Z,1020.39
2022-07-28T05:16:41.775Z,1020.59
2022-07-28T05:17:12.713Z,1020.59
2022-07-28T05:17:43.779Z,1020.69
2022-07-28T05:18:14.659Z,1020.69
2022-07-28T05:18:45.718Z,1020.49
2022-07-28T05:19:17.734Z,1020.49
2022-07-28T05:19:47.730Z,1020.39
2022-07-28T05:20:18.998Z,1020.39
2022-07-28T05:20:49.753Z,1020.49
2022-07-28T05:21:22.436Z,1020.49
2022-07-28T05:21:51.769Z,1020.59
2022-07-28T05:22:22.697Z,1020.59
2022-07-28T05:22:53.754Z,1020.39
2022-07-28T05:23:24.781Z,1020.39
2022-07-28T05:23:55.803Z,1020.59
2022-07-28T05:24:26.802Z,1020.59
2022-07-28T05:24:57.682Z,1020.79
2022-07-28T05:25:29.587Z,1020.79
2022-07-28T05:25:59.782Z,1020.49
2022-07-28T05:26:30.741Z,1020.49
2022-07-28T05:27:01.705Z,1020.79
2022-07-28T05:27:32.921Z,1020.69
2022-07-28T05:28:03.767Z,1020.69
2022-07-28T05:28:34.681Z,1020.59
2022-07-28T05:29:05.766Z,1020.59
2022-07-28T05:29:46.693Z,1020.59
2022-07-28T05:30:08.130Z,1020.59
2022-07-28T05:30:38.746Z,1020.49
2022-07-28T05:31:09.679Z,1020.49
2022-07-28T05:31:40.828Z,1020.49
2022-07-28T05:32:17.448Z,1020.49
2022-07-28T05:32:42.870Z,1020.59
2022-07-28T05:33:13.822Z,1020.59
2022-07-28T05:33:44.863Z,1020.59
2022-07-28T05:34:16.070Z,1020.59
2022-07-28T05:34:46.863Z,1020.79
2022-07-28T05:35:18.573Z,1020.79
2022-07-28T05:35:48.860Z,1020.59
2022-07-28T05:36:20.147Z,1020.59
2022-07-28T05:36:50.833Z,1020.79
2022-07-28T05:37:21.948Z,1020.79
2022-07-28T05:37:52.950Z,1020.79
2022-07-28T05:38:23.836Z,1020.79
2022-07-28T05:38:54.858Z,1020.79
2022-07-28T05:39:25.882Z,1020.79
2022-07-28T05:39:56.951Z,1020.49
2022-07-28T05:40:28.321Z,1020.49
2022-07-28T05:40:58.867Z,1020.69
2022-07-28T05:41:29.857Z,1020.69
2022-07-28T05:42:00.887Z,1020.79
2022-07-28T05:42:31.970Z,1020.79
2022-07-28T05:43:02.938Z,1020.79
2022-07-28T05:43:33.828Z,1020.79
2022-07-28T05:44:04.883Z,1020.79
2022-07-28T05:44:38.475Z,1020.69
2022-07-28T05:45:16.823Z,1020.69
2022-07-28T05:45:38.027Z,1020.89
2022-07-28T05:46:08.881Z,1020.89
2022-07-28T05:46:39.877Z,1020.69
2022-07-28T05:47:10.944Z,1020.69
2022-07-28T05:47:42.016Z,1020.89
2022-07-28T05:48:12.884Z,1020.89
2022-07-28T05:48:44.008Z,1020.89
2022-07-28T05:49:15.005Z,1020.89
2022-07-28T05:49:45.955Z,1020.49
2022-07-28T05:50:17.830Z,1020.49
2022-07-28T05:50:48.864Z,1020.79
2022-07-28T05:51:18.936Z,1020.79
2022-07-28T05:51:50.117Z,1020.59
2022-07-28T05:52:20.985Z,1020.59
2022-07-28T05:52:51.967Z,1020.69
2022-07-28T05:53:22.924Z,1020.69
2022-07-28T05:53:53.846Z,1020.59
2022-07-28T05:54:25.050Z,1020.59
2022-07-28T05:54:55.899Z,1020.59
2022-07-28T05:55:27.482Z,1020.59
2022-07-28T05:56:01.177Z,1020.89
2022-07-28T05:56:28.911Z,1020.89
2022-07-28T05:56:59.942Z,1020.69
2022-07-28T05:57:30.963Z,1020.69
2022-07-28T05:58:02.070Z,1020.79
2022-07-28T05:58:33.033Z,1020.89
2022-07-28T05:59:03.878Z,1020.89
2022-07-28T05:59:34.909Z,1020.99
2022-07-28T06:00:06.595Z,1020.99
2022-07-28T06:00:37.005Z,1020.79
2022-07-28T06:01:08.186Z,1020.79
2022-07-28T06:01:39.045Z,1020.89
2022-07-28T06:02:10.063Z,1020.89
2022-07-28T06:02:41.029Z,1020.89
2022-07-28T06:03:12.041Z,1020.89
2022-07-28T06:03:42.964Z,1020.79
2022-07-28T06:04:27.806Z,1020.79
2022-07-28T06:04:45.004Z,1020.89
2022-07-28T06:05:16.373Z,1020.89
2022-07-28T06:06:00.504Z,1020.59
2022-07-28T06:06:48.883Z,1020.79
2022-07-28T06:07:20.011Z,1020.79
2022-07-28T06:07:51.011Z,1020.99
2022-07-28T06:08:22.120Z,1020.99
2022-07-28T06:08:52.899Z,1020.79
2022-07-28T06:09:23.955Z,1020.79
2022-07-28T06:09:54.957Z,1020.89
2022-07-28T06:10:27.785Z,1020.89
2022-07-28T06:10:57.059Z,1020.99
2022-07-28T06:11:28.051Z,1020.99
2022-07-28T06:11:58.936Z,1020.79
2022-07-28T06:12:29.949Z,1020.79
2022-07-28T06:13:01.047Z,1020.69
2022-07-28T06:13:32.011Z,1020.69
2022-07-28T06:14:03.025Z,1020.99
2022-07-28T06:14:34.012Z,1020.89
2022-07-28T06:15:05.564Z,1020.89
2022-07-28T06:15:36.068Z,1020.79
2022-07-28T06:16:12.660Z,1020.79
2022-07-28T06:16:38.173Z,1021.10